MST,Max TemperatureF,Mean TemperatureF,Min TemperatureF,Max Dew PointF,MeanDew PointF,Min DewpointF,Max Humidity, Mean Humidity, Min Humidity, Max Sea Level PressureIn, Mean Sea Level PressureIn, Min Sea Level PressureIn, Max VisibilityMiles, Mean VisibilityMiles, Min VisibilityMiles, Max Wind SpeedMPH, Mean Wind SpeedMPH, Max Gust SpeedMPH,PrecipitationIn, CloudCover, Events, WindDirDegrees
2013-11-1,58,43,28,32,26,23,92,60,28,30.24,30.07,29.86,10,10,10,21,8,28,0.00,4,,263
2013-11-2,70,46,21,31,26,20,100,58,16,30.30,30.09,29.76,10,10,10,21,6,29,0.00,0,,187
2013-11-3,79,56,32,32,24,15,82,46,9,29.73,29.57,29.46,10,10,10,30,9,39,0.00,0,,242
2013-11-4,54,41,28,30,26,22,78,53,28,30.05,29.92,29.65,10,10,10,29,9,37,0.00,1,,68
2013-11-5,44,33,22,40,33,18,92,72,52,30.24,29.96,29.83,10,8,0,28,11,32,0.07,6,Fog-Rain,27
2013-11-6,56,37,17,24,16,5,91,52,12,30.38,30.29,30.22,10,10,10,10,5,13,0.00,0,,234
2013-11-7,63,41,19,25,19,14,81,50,19,30.50,30.31,30.02,10,10,10,20,8,26,0.00,0,,174
2013-11-8,80,56,31,28,20,10,75,41,7,29.98,29.83,29.67,10,10,10,25,9,32,0.00,0,,277
2013-11-9,65,46,27,31,27,22,78,52,26,30.24,30.12,29.90,10,10,10,15,5,18,0.00,0,,132
2013-11-10,62,45,28,39,31,25,100,67,34,30.31,30.23,30.12,10,8,0,9,3,13,0.00,2,Fog,125
2013-11-11,64,45,26,34,27,23,85,56,27,30.68,30.36,30.14,10,9,7,22,11,28,0.00,4,,9
2013-11-12,54,39,24,28,25,21,81,60,38,30.79,30.65,30.45,10,10,8,10,5,15,0.00,4,,215
2013-11-13,71,45,18,31,23,15,92,52,12,30.42,30.16,29.87,10,10,9,16,7,20,0.00,0,,220
2013-11-14,59,45,30,33,29,23,82,60,37,29.98,29.90,29.84,10,10,8,28,10,35,0.00,0,,70
2013-11-15,70,48,25,29,22,13,92,52,11,29.81,29.60,29.37,10,10,10,18,6,23,0.00,0,,184
2013-11-16,70,52,33,30,21,16,75,44,12,29.44,29.35,29.25,10,8,2,30,14,39,0.00,3,,250
2013-11-17,58,43,27,30,21,12,78,49,20,30.14,29.84,29.44,10,10,10,31,7,39,T,1,,78
2013-11-18,63,41,18,18,13,8,67,41,14,30.24,30.13,30.01,10,10,8,25,8,30,0.00,0,,184
2013-11-19,64,40,16,24,17,10,74,46,18,29.99,29.82,29.70,10,10,9,12,4,13,0.00,0,,239
2013-11-20,61,44,26,28,20,17,69,48,27,29.86,29.79,29.71,10,10,10,9,6,,0.00,0,,208
2013-11-21,21,19,17,12,10,8,81,68,60,30.58,30.47,30.30,10,7,2,20,16,25,0.00,8,Snow,5
2013-11-22,27,22,17,23,18,12,88,84,80,30.74,30.61,30.52,9,2,0,12,6,14,0.16,8,Fog-Snow,281
2013-11-23,31,28,25,25,21,18,92,78,63,30.75,30.67,30.56,10,8,5,20,7,24,T,8,,139
2013-11-24,35,26,17,24,21,14,84,74,64,30.54,30.26,30.01,10,7,0,35,13,44,0.03,5,Fog-Snow,179
2013-11-25,42,28,14,27,23,11,91,73,55,30.33,30.20,30.02,10,9,5,17,6,22,T,7,,351
2013-11-26,50,37,24,29,24,21,88,61,33,30.43,30.37,30.31,10,10,10,20,5,27,0.00,2,,7
2013-11-27,54,35,16,31,24,14,92,67,41,30.33,30.19,30.06,10,10,10,13,5,15,0.00,0,,252
2013-11-28,64,47,28,27,24,18,81,53,24,30.32,30.22,30.07,10,10,8,12,5,14,0.00,0,,159
2013-11-29,58,41,23,31,24,16,85,59,33,30.21,30.14,30.04,10,6,0,13,6,15,0.00,3,,257
2013-11-30,60,40,20,26,22,18,92,58,23,30.22,30.16,30.06,10,10,10,14,6,18,0.00,0,,251